createdAt,value
2023-10-25T00:01:00.211Z,0.09
2023-10-25T00:02:00.635Z,0.09
2023-10-25T00:03:01.258Z,0.09
2023-10-25T00:04:01.339Z,0.09
2023-10-25T00:05:01.934Z,0.09
2023-10-25T00:06:02.384Z,0.13
2023-10-25T00:07:02.654Z,0.09
2023-10-25T00:08:03.169Z,0.09
2023-10-25T00:09:03.850Z,0.09
2023-10-25T00:10:04.577Z,0.09
2023-10-25T00:11:05.080Z,0.09
2023-10-25T00:11:14.214Z,0.09
2023-10-25T00:12:14.670Z,0.09
2023-10-25T00:13:15.204Z,0.09
2023-10-25T00:14:15.616Z,0.09
2023-10-25T00:15:16.378Z,0.09
2023-10-25T00:16:17.164Z,0.09
2023-10-25T00:17:17.505Z,0.09
2023-10-25T00:18:17.847Z,0.09
2023-10-25T00:19:18.507Z,0.09
2023-10-25T00:20:18.949Z,0.09
2023-10-25T00:21:19.433Z,0.09
2023-10-25T00:22:19.766Z,0.09
2023-10-25T00:23:20.768Z,0.09
2023-10-25T00:24:21.331Z,0.09
2023-10-25T00:25:21.475Z,0.09
2023-10-25T00:26:22.352Z,0.09
2023-10-25T00:27:23.144Z,0.09
2023-10-25T00:28:23.628Z,0.09
2023-10-25T00:29:24.145Z,0.09
2023-10-25T00:30:24.568Z,0.09
2023-10-25T00:31:25.162Z,0.09
2023-10-25T00:32:25.366Z,0.09
2023-10-25T00:33:25.780Z,0.09
2023-10-25T00:34:26.167Z,0.09
2023-10-25T00:35:26.217Z,0.09
2023-10-25T00:36:26.741Z,0.09
2023-10-25T00:37:27.118Z,0.09
2023-10-25T00:38:27.496Z,0.09
2023-10-25T00:39:28.088Z,0.09
2023-10-25T00:40:28.683Z,0.09
2023-10-25T00:41:29.537Z,0.09
2023-10-25T00:42:29.914Z,0.09
2023-10-25T00:43:30.278Z,0.09
2023-10-25T00:44:30.995Z,0.09
2023-10-25T00:45:31.376Z,0.09
2023-10-25T00:45:40.065Z,0.09
2023-10-25T00:46:40.825Z,0.09
2023-10-25T00:47:41.340Z,0.09
2023-10-25T00:48:41.695Z,0.09
2023-10-25T00:49:42.229Z,0.09
2023-10-25T00:50:42.784Z,0.09
2023-10-25T00:51:43.945Z,0.09
2023-10-25T00:52:43.302Z,0.09
2023-10-25T00:53:43.617Z,0.09
2023-10-25T00:54:44.050Z,0.09
2023-10-25T00:55:44.489Z,0.09
2023-10-25T00:56:44.923Z,0.09
2023-10-25T00:57:45.349Z,0.09
2023-10-25T00:58:46.115Z,0.09
2023-10-25T00:59:46.582Z,0.09
2023-10-25T01:00:47.173Z,0.09
2023-10-25T01:01:47.643Z,0.09
2023-10-25T01:02:48.546Z,0.09
2023-10-25T01:03:48.890Z,0.09
2023-10-25T01:04:49.450Z,0.09
2023-10-25T01:05:49.804Z,0.09
2023-10-25T01:06:50.453Z,0.09
2023-10-25T01:07:50.798Z,0.09
2023-10-25T01:08:50.880Z,0.09
2023-10-25T01:09:51.428Z,0.09
2023-10-25T01:10:51.884Z,0.09
2023-10-25T01:11:52.251Z,0.09
2023-10-25T01:12:52.830Z,0.09
2023-10-25T01:13:53.719Z,0.09
2023-10-25T01:14:54.183Z,0.09
2023-10-25T01:15:54.814Z,0.09
2023-10-25T01:16:55.173Z,0.09
2023-10-25T01:17:55.540Z,0.09
2023-10-25T01:18:56.054Z,0.09
2023-10-25T01:19:56.518Z,0.09
2023-10-25T01:20:05.173Z,0.09
2023-10-25T01:21:05.659Z,0.09
2023-10-25T01:22:06.117Z,0.13
2023-10-25T01:23:06.540Z,0.09
2023-10-25T01:24:07.110Z,0.09
2023-10-25T01:25:08.005Z,0.09
2023-10-25T01:26:08.199Z,0.09
2023-10-25T01:27:08.961Z,0.09
2023-10-25T01:28:09.828Z,0.09
2023-10-25T01:29:11.282Z,0.09
2023-10-25T01:30:10.524Z,0.09
2023-10-25T01:31:10.794Z,0.09
2023-10-25T01:32:11.198Z,0.09
2023-10-25T01:33:11.573Z,0.09
2023-10-25T01:34:11.914Z,0.09
2023-10-25T01:35:12.172Z,0.09
2023-10-25T01:36:12.506Z,0.09
2023-10-25T01:37:12.950Z,0.09
2023-10-25T01:38:13.317Z,0.06
2023-10-25T01:39:14.217Z,0.09
2023-10-25T01:40:14.835Z,0.09
2023-10-25T01:41:15.184Z,0.09
2023-10-25T01:42:15.374Z,0.09
2023-10-25T01:43:15.802Z,0.09
2023-10-25T01:44:16.123Z,0.09
2023-10-25T01:45:16.476Z,0.09
2023-10-25T01:46:16.933Z,0.09
2023-10-25T01:47:17.229Z,0.09
2023-10-25T01:48:17.622Z,0.09
2023-10-25T01:49:18.003Z,0.09
2023-10-25T01:50:18.421Z,0.09
2023-10-25T01:51:18.970Z,0.09
2023-10-25T01:52:19.298Z,0.09
2023-10-25T01:53:20.001Z,0.09
2023-10-25T01:54:20.462Z,0.09
2023-10-25T01:54:29.126Z,0.09
2023-10-25T01:55:29.225Z,0.09
2023-10-25T01:56:29.752Z,0.09
2023-10-25T01:57:30.016Z,0.09
2023-10-25T01:58:30.288Z,0.09
2023-10-25T01:59:30.578Z,0.09
2023-10-25T02:00:31.170Z,0.09
2023-10-25T02:01:31.977Z,0.09
2023-10-25T02:02:32.329Z,0.09
2023-10-25T02:03:32.588Z,0.09
2023-10-25T02:04:32.887Z,0.09
2023-10-25T02:05:33.414Z,0.09
2023-10-25T02:06:33.777Z,0.09
2023-10-25T02:07:34.128Z,0.09
2023-10-25T02:08:34.524Z,0.09
2023-10-25T02:09:35.182Z,0.09
2023-10-25T02:10:35.890Z,0.09
2023-10-25T02:11:36.303Z,0.09
2023-10-25T02:12:36.744Z,0.09
2023-10-25T02:13:37.476Z,0.09
2023-10-25T02:14:37.959Z,0.09
2023-10-25T02:15:38.457Z,0.09
2023-10-25T02:16:38.994Z,0.09
2023-10-25T02:17:39.487Z,0.09
2023-10-25T02:18:40.236Z,0.09
2023-10-25T02:19:41.219Z,0.09
2023-10-25T02:20:41.462Z,0.09
2023-10-25T02:21:41.969Z,0.09
2023-10-25T02:22:42.262Z,0.09
2023-10-25T02:23:42.845Z,0.09
2023-10-25T02:24:43.210Z,0.09
2023-10-25T02:25:43.846Z,0.09
2023-10-25T02:26:44.782Z,0.09
2023-10-25T02:27:45.658Z,0.09
2023-10-25T02:28:45.916Z,0.09
2023-10-25T02:28:57.576Z,0.09
2023-10-25T02:29:57.975Z,0.09
2023-10-25T02:30:58.469Z,0.09
2023-10-25T02:31:59.233Z,0.09
2023-10-25T02:32:59.669Z,0.09
2023-10-25T02:34:00.114Z,0.09
2023-10-25T02:35:00.578Z,0.09
2023-10-25T02:36:01.106Z,0.09
2023-10-25T02:37:01.758Z,0.09
2023-10-25T02:38:02.098Z,0.09
2023-10-25T02:39:02.566Z,0.09
2023-10-25T02:40:03.158Z,0.09
2023-10-25T02:41:03.684Z,0.09
2023-10-25T02:42:04.239Z,0.09
2023-10-25T02:43:04.856Z,0.09
2023-10-25T02:44:05.685Z,0.09
2023-10-25T02:45:06.246Z,0.09
2023-10-25T02:46:06.160Z,0.09
2023-10-25T02:47:06.491Z,0.09
2023-10-25T02:48:06.836Z,0.09
2023-10-25T02:49:07.278Z,0.09
2023-10-25T02:50:07.723Z,0.09
2023-10-25T02:51:08.118Z,0.09
2023-10-25T02:52:08.467Z,0.09
2023-10-25T02:53:08.734Z,0.09
2023-10-25T02:54:09.165Z,0.09
2023-10-25T02:55:09.580Z,0.09
2023-10-25T02:56:10.036Z,0.09
2023-10-25T02:57:10.352Z,0.09
2023-10-25T02:58:10.691Z,0.09
2023-10-25T02:59:11.037Z,0.09
2023-10-25T03:00:11.413Z,0.09
2023-10-25T03:01:12.036Z,0.09
2023-10-25T03:02:12.501Z,0.09
2023-10-25T03:02:21.168Z,0.09
2023-10-25T03:03:21.565Z,0.09
2023-10-25T03:04:22.036Z,0.09
2023-10-25T03:05:22.264Z,0.09
2023-10-25T03:06:22.745Z,0.09
2023-10-25T03:07:23.083Z,0.09
2023-10-25T03:08:23.332Z,0.09
2023-10-25T03:09:24.048Z,0.09
2023-10-25T03:10:24.563Z,0.09
2023-10-25T03:11:25.258Z,0.09
2023-10-25T03:12:25.781Z,0.09
2023-10-25T03:13:26.184Z,0.09
2023-10-25T03:14:26.711Z,0.09
2023-10-25T03:15:27.246Z,0.09
2023-10-25T03:16:28.309Z,0.09
2023-10-25T03:17:28.660Z,0.09
2023-10-25T03:18:29.051Z,0.09
2023-10-25T03:19:29.426Z,0.09
2023-10-25T03:20:30.107Z,0.09
2023-10-25T03:21:30.665Z,0.09
2023-10-25T03:22:31.144Z,0.09
2023-10-25T03:23:31.507Z,0.09
2023-10-25T03:24:31.901Z,0.09
2023-10-25T03:25:32.203Z,0.09
2023-10-25T03:26:32.576Z,0.09
2023-10-25T03:27:33.052Z,0.09
2023-10-25T03:28:33.470Z,0.09
2023-10-25T03:29:33.808Z,0.09
2023-10-25T03:30:34.110Z,0.09
2023-10-25T03:31:34.531Z,0.09
2023-10-25T03:32:34.941Z,0.09
2023-10-25T03:33:35.400Z,0.09
2023-10-25T03:34:35.833Z,0.09
2023-10-25T03:35:36.278Z,0.09
2023-10-25T03:36:36.844Z,0.09
2023-10-25T03:36:45.481Z,0.09
2023-10-25T03:37:45.739Z,0.09
2023-10-25T03:38:46.070Z,0.09
2023-10-25T03:39:46.334Z,0.09
2023-10-25T03:40:46.764Z,0.09
2023-10-25T03:41:47.112Z,0.09
2023-10-25T03:42:47.396Z,0.09
2023-10-25T03:43:47.641Z,0.09
2023-10-25T03:44:48.013Z,0.09
2023-10-25T03:45:48.331Z,0.09
2023-10-25T03:46:48.762Z,0.09
2023-10-25T03:47:48.932Z,0.09
2023-10-25T03:48:49.338Z,0.09
2023-10-25T03:49:49.625Z,0.09
2023-10-25T03:50:50.272Z,0.09
2023-10-25T03:51:50.817Z,0.09
2023-10-25T03:52:51.251Z,0.09
2023-10-25T03:53:51.734Z,0.09
2023-10-25T03:54:52.500Z,0.09
2023-10-25T03:55:52.901Z,0.09
2023-10-25T03:56:53.521Z,0.09
2023-10-25T03:57:54.006Z,0.09
2023-10-25T03:58:54.366Z,0.09
2023-10-25T03:59:54.797Z,0.09
2023-10-25T04:00:55.211Z,0.09
2023-10-25T04:01:55.828Z,0.09
2023-10-25T04:02:56.518Z,0.09
2023-10-25T04:03:57.030Z,0.09
2023-10-25T04:04:57.480Z,0.09
2023-10-25T04:05:58.089Z,0.09
2023-10-25T04:06:58.953Z,0.09
2023-10-25T04:07:59.128Z,0.09
2023-10-25T04:08:59.360Z,0.09
2023-10-25T04:09:59.856Z,0.09
2023-10-25T04:10:59.972Z,0.09
2023-10-25T04:11:09.136Z,0.09
2023-10-25T04:12:10.013Z,0.09
2023-10-25T04:13:10.413Z,0.09
2023-10-25T04:14:10.846Z,0.09
2023-10-25T04:15:11.279Z,0.09
2023-10-25T04:16:12.091Z,0.09
2023-10-25T04:17:12.357Z,0.13
2023-10-25T04:18:12.678Z,0.09
2023-10-25T04:19:13.492Z,0.09
2023-10-25T04:20:13.400Z,0.09
2023-10-25T04:21:13.680Z,0.09
2023-10-25T04:22:14.313Z,0.09
2023-10-25T04:23:14.878Z,0.09
2023-10-25T04:24:15.454Z,0.09
2023-10-25T04:25:16.070Z,0.09
2023-10-25T04:26:16.578Z,0.09
2023-10-25T04:27:16.618Z,0.09
2023-10-25T04:28:17.432Z,0.09
2023-10-25T04:29:17.915Z,0.09
2023-10-25T04:30:18.521Z,0.09
2023-10-25T04:31:19.086Z,0.09
2023-10-25T04:32:19.551Z,0.09
2023-10-25T04:33:20.019Z,0.09
2023-10-25T04:34:20.513Z,0.09
2023-10-25T04:35:21.059Z,0.09
2023-10-25T04:36:21.670Z,0.09
2023-10-25T04:37:22.172Z,0.09
2023-10-25T04:38:22.613Z,0.09
2023-10-25T04:39:23.144Z,0.09
2023-10-25T04:40:23.670Z,0.09
2023-10-25T04:41:24.024Z,0.09
2023-10-25T04:42:24.558Z,0.09
2023-10-25T04:43:24.926Z,0.09
2023-10-25T04:44:25.276Z,0.09
2023-10-25T04:45:26.036Z,0.09
2023-10-25T04:45:34.698Z,0.09
2023-10-25T04:46:35.183Z,0.09
2023-10-25T04:47:35.835Z,0.09
2023-10-25T04:48:36.227Z,0.13
2023-10-25T04:49:36.583Z,0.09
2023-10-25T04:50:36.844Z,0.13
2023-10-25T04:51:37.578Z,0.09
2023-10-25T04:52:37.907Z,0.09
2023-10-25T04:53:38.173Z,0.09
2023-10-25T04:54:38.400Z,0.09
2023-10-25T04:55:38.681Z,0.09
2023-10-25T04:56:38.930Z,0.09
2023-10-25T04:57:39.195Z,0.09
2023-10-25T04:58:39.392Z,0.09
2023-10-25T04:59:40.154Z,0.09
2023-10-25T05:00:40.443Z,0.09
2023-10-25T05:01:40.815Z,0.09
2023-10-25T05:02:41.146Z,0.09
2023-10-25T05:03:41.682Z,0.09
2023-10-25T05:04:41.991Z,0.09
2023-10-25T05:05:42.509Z,0.09
2023-10-25T05:06:42.952Z,0.09
2023-10-25T05:07:43.244Z,0.09
2023-10-25T05:08:43.526Z,0.09
2023-10-25T05:09:44.157Z,0.09
2023-10-25T05:10:44.155Z,0.09
2023-10-25T05:11:44.423Z,0.09
2023-10-25T05:12:44.542Z,0.09
2023-10-25T05:13:44.972Z,0.09
2023-10-25T05:14:45.607Z,0.09
2023-10-25T05:15:45.990Z,0.09
2023-10-25T05:16:46.488Z,0.09
2023-10-25T05:17:47.080Z,0.09
2023-10-25T05:18:47.787Z,0.09
2023-10-25T05:19:48.238Z,0.09
2023-10-25T05:19:56.927Z,0.09
2023-10-25T05:20:57.623Z,0.09
2023-10-25T05:21:58.629Z,0.09
2023-10-25T05:22:59.018Z,0.09
2023-10-25T05:23:59.252Z,0.09
2023-10-25T05:24:59.717Z,0.13
2023-10-25T05:26:00.077Z,0.09
2023-10-25T05:27:00.361Z,0.13
2023-10-25T05:28:01.288Z,0.09
2023-10-25T05:29:01.538Z,0.13
2023-10-25T05:30:02.431Z,0.13
2023-10-25T05:31:02.905Z,0.13
2023-10-25T05:32:03.176Z,0.13
2023-10-25T05:33:03.610Z,0.13
2023-10-25T05:34:03.884Z,0.09
2023-10-25T05:35:04.138Z,0.13
2023-10-25T05:36:04.540Z,0.13
2023-10-25T05:37:04.864Z,0.13
2023-10-25T05:38:05.347Z,0.13
2023-10-25T05:39:05.605Z,0.13
2023-10-25T05:40:05.953Z,0.13
2023-10-25T05:41:06.199Z,0.13
2023-10-25T05:42:06.568Z,0.13
2023-10-25T05:43:07.214Z,0.13
2023-10-25T05:44:07.586Z,0.13
2023-10-25T05:45:07.990Z,0.13
2023-10-25T05:46:08.584Z,0.13
2023-10-25T05:47:08.712Z,0.13
2023-10-25T05:48:09.040Z,0.13
2023-10-25T05:49:09.391Z,0.13
2023-10-25T05:50:09.635Z,0.13
2023-10-25T05:51:10.122Z,0.13
2023-10-25T05:52:10.655Z,0.13
2023-10-25T05:53:10.960Z,0.13
2023-10-25T05:53:19.586Z,0.13
2023-10-25T05:54:20.258Z,0.16
2023-10-25T05:55:20.674Z,0.13
2023-10-25T05:56:21.183Z,0.16
2023-10-25T05:57:21.534Z,0.13
2023-10-25T05:58:21.948Z,0.16
2023-10-25T05:59:22.367Z,0.16
2023-10-25T06:00:22.836Z,0.16
2023-10-25T06:01:23.397Z,0.23
2023-10-25T06:02:24.241Z,0.16
2023-10-25T06:03:31.913Z,0.16
2023-10-25T06:04:25.382Z,0.16
2023-10-25T06:05:25.834Z,0.16
2023-10-25T06:06:26.126Z,0.16
2023-10-25T06:07:26.423Z,0.16
2023-10-25T06:08:26.921Z,0.13
2023-10-25T06:09:28.370Z,0.23
2023-10-25T06:10:30.037Z,0.16
2023-10-25T06:11:27.944Z,0.16
2023-10-25T06:12:28.023Z,0.16
2023-10-25T06:13:28.404Z,0.13
2023-10-25T06:14:29.038Z,0.16
2023-10-25T06:15:29.111Z,0.16
2023-10-25T06:16:31.978Z,0.16
2023-10-25T06:17:30.299Z,0.16
2023-10-25T06:18:30.723Z,0.16
2023-10-25T06:19:31.597Z,0.16
2023-10-25T06:20:31.942Z,0.16
2023-10-25T06:21:32.301Z,0.16
2023-10-25T06:22:32.637Z,0.16
2023-10-25T06:23:33.109Z,0.16
2023-10-25T06:24:33.542Z,0.16
2023-10-25T06:25:34.091Z,0.16
2023-10-25T06:25:42.640Z,0.16
2023-10-25T06:26:43.600Z,0.16
2023-10-25T06:27:44.396Z,0.16
2023-10-25T06:28:44.879Z,0.16
2023-10-25T06:29:45.096Z,0.16
2023-10-25T06:30:46.126Z,0.16
2023-10-25T06:31:46.424Z,0.16
2023-10-25T06:32:46.725Z,0.16
2023-10-25T06:33:47.205Z,0.16
2023-10-25T06:34:47.987Z,0.23
2023-10-25T06:35:48.503Z,0.16
2023-10-25T06:36:49.054Z,0.23
2023-10-25T06:37:49.253Z,0.23
2023-10-25T06:38:49.715Z,0.23
2023-10-25T06:39:49.745Z,0.16
2023-10-25T06:40:50.332Z,0.23
2023-10-25T06:41:50.927Z,0.23
2023-10-25T06:42:51.668Z,0.23
2023-10-25T06:43:52.404Z,0.23
2023-10-25T06:44:52.885Z,0.27
2023-10-25T06:45:53.470Z,0.23
2023-10-25T06:46:54.025Z,0.27
2023-10-25T06:47:54.457Z,0.23
2023-10-25T06:48:55.004Z,0.27
2023-10-25T06:49:55.537Z,0.27
2023-10-25T06:50:55.939Z,0.23
2023-10-25T06:51:56.450Z,0.27
2023-10-25T06:52:57.202Z,0.27
2023-10-25T06:53:58.072Z,0.27
2023-10-25T06:54:58.353Z,0.27
2023-10-25T06:55:58.720Z,0.27
2023-10-25T06:56:59.144Z,0.27
2023-10-25T06:57:59.211Z,0.27
2023-10-25T06:58:07.850Z,0.27
2023-10-25T06:59:08.260Z,0.27
2023-10-25T07:00:08.900Z,0.27
2023-10-25T07:01:09.509Z,0.27
2023-10-25T07:02:10.317Z,0.31
2023-10-25T07:03:10.828Z,0.31
2023-10-25T07:04:11.661Z,0.31
2023-10-25T07:05:12.347Z,0.31
2023-10-25T07:06:12.844Z,0.31
2023-10-25T07:07:13.366Z,0.31
2023-10-25T07:08:13.686Z,0.31
2023-10-25T07:09:14.314Z,0.31
2023-10-25T07:10:14.969Z,0.31
2023-10-25T07:11:15.407Z,0.31
2023-10-25T07:12:15.876Z,0.34
2023-10-25T07:13:15.990Z,0.34
2023-10-25T07:14:16.566Z,0.34
2023-10-25T07:15:17.117Z,0.34
2023-10-25T07:16:17.820Z,0.34
2023-10-25T07:17:18.191Z,0.34
2023-10-25T07:18:18.701Z,0.34
2023-10-25T07:19:19.061Z,0.31
2023-10-25T07:20:19.749Z,0.31
2023-10-25T07:21:20.161Z,0.31
2023-10-25T07:22:20.692Z,0.31
2023-10-25T07:23:21.118Z,0.31
2023-10-25T07:24:21.779Z,0.31
2023-10-25T07:25:22.574Z,0.31
2023-10-25T07:26:23.096Z,0.31
2023-10-25T07:27:23.568Z,0.31
2023-10-25T07:28:24.254Z,0.31
2023-10-25T07:29:24.509Z,0.31
2023-10-25T07:29:33.156Z,0.31
2023-10-25T07:30:33.526Z,0.31
2023-10-25T07:31:34.187Z,0.31
2023-10-25T07:32:34.667Z,0.31
2023-10-25T07:33:35.137Z,0.31
2023-10-25T07:34:35.687Z,0.34
2023-10-25T07:35:36.322Z,0.34
2023-10-25T07:36:36.836Z,0.31
2023-10-25T07:37:37.414Z,0.31
2023-10-25T07:38:37.922Z,0.31
2023-10-25T07:39:38.667Z,0.38
2023-10-25T07:40:39.155Z,0.34
2023-10-25T07:41:39.724Z,0.34
2023-10-25T07:42:40.306Z,0.34
2023-10-25T07:43:41.017Z,0.34
2023-10-25T07:44:41.734Z,0.34
2023-10-25T07:45:41.974Z,0.34
2023-10-25T07:46:42.446Z,0.34
2023-10-25T07:47:42.680Z,0.38
2023-10-25T07:48:43.220Z,0.38
2023-10-25T07:49:43.647Z,0.38
2023-10-25T07:50:44.296Z,0.38
2023-10-25T07:51:44.205Z,0.38
2023-10-25T07:52:44.639Z,0.38
2023-10-25T07:53:44.973Z,0.41
2023-10-25T07:54:45.384Z,0.38
2023-10-25T07:58:47.233Z,0.38
2023-10-25T07:59:47.846Z,0.38
2023-10-25T08:00:48.620Z,0.38
2023-10-25T08:00:57.340Z,0.41
2023-10-25T08:01:57.809Z,0.41
2023-10-25T08:02:58.064Z,0.41
2023-10-25T08:03:58.554Z,0.41
2023-10-25T08:04:58.874Z,0.41
2023-10-25T08:05:59.335Z,0.41
2023-10-25T08:07:00.280Z,0.41
2023-10-25T08:08:00.277Z,0.41
2023-10-25T08:09:00.656Z,0.41
2023-10-25T08:10:01.340Z,0.41
2023-10-25T08:11:01.638Z,0.41
2023-10-25T08:12:02.589Z,0.41
2023-10-25T08:13:03.160Z,0.41
2023-10-25T08:14:04.017Z,0.41
2023-10-25T08:15:04.440Z,0.38
2023-10-25T08:16:04.800Z,0.38
2023-10-25T08:17:05.298Z,0.38
2023-10-25T08:18:06.465Z,0.41
2023-10-25T08:20:17.944Z,0.41
2023-10-25T08:21:18.437Z,0.41
2023-10-25T08:22:19.153Z,0.41
2023-10-25T08:23:20.086Z,0.41
2023-10-25T08:24:20.687Z,0.45
2023-10-25T08:25:21.475Z,0.45
2023-10-25T08:26:22.170Z,0.45
2023-10-25T08:27:56.116Z,0.45
2023-10-25T08:28:56.921Z,0.45
2023-10-25T08:29:57.846Z,0.45
2023-10-25T08:30:58.123Z,0.45
2023-10-25T08:31:58.579Z,0.45
2023-10-25T08:32:59.324Z,0.45
2023-10-25T08:33:59.837Z,0.41
2023-10-25T08:35:00.388Z,0.45
2023-10-25T08:36:01.082Z,0.45
2023-10-25T08:37:01.516Z,0.41
2023-10-25T08:38:02.106Z,0.41
2023-10-25T08:39:02.672Z,0.41
2023-10-25T08:40:03.230Z,0.52
2023-10-25T08:41:03.938Z,0.45
2023-10-25T08:42:03.929Z,0.45
2023-10-25T08:43:04.585Z,0.45
2023-10-25T08:44:05.317Z,0.45
2023-10-25T08:45:06.212Z,0.41
2023-10-25T08:46:07.039Z,0.41
2023-10-25T08:47:07.737Z,0.41
2023-10-25T08:48:11.680Z,0.41
2023-10-25T08:49:08.862Z,0.41
2023-10-25T08:50:08.966Z,0.41
2023-10-25T08:51:09.408Z,0.41
2023-10-25T08:52:10.269Z,0.41
2023-10-25T08:53:11.007Z,0.41
2023-10-25T08:54:11.590Z,0.41
2023-10-25T08:55:11.692Z,0.41
2023-10-25T08:56:12.358Z,0.41
2023-10-25T08:57:13.113Z,0.38
2023-10-25T08:58:13.881Z,0.38
2023-10-25T08:59:13.999Z,0.34
2023-10-25T09:00:14.652Z,0.34
2023-10-25T09:01:15.383Z,0.34
2023-10-25T09:01:24.133Z,0.34
2023-10-25T09:02:24.108Z,0.31
2023-10-25T09:03:24.799Z,0.31
2023-10-25T09:04:25.529Z,0.34
2023-10-25T09:05:25.932Z,0.34
2023-10-25T09:06:26.816Z,0.31
2023-10-25T09:07:27.501Z,0.34
2023-10-25T09:08:28.293Z,0.34
2023-10-25T09:09:29.052Z,0.34
2023-10-25T09:10:29.726Z,0.34
2023-10-25T09:11:30.476Z,0.34
2023-10-25T09:12:31.102Z,0.34
2023-10-25T09:13:31.712Z,0.34
2023-10-25T09:14:32.420Z,0.31
2023-10-25T09:15:33.189Z,0.31
2023-10-25T09:16:33.944Z,0.31
2023-10-25T09:17:34.604Z,0.31
2023-10-25T09:18:34.824Z,0.31
2023-10-25T09:19:35.367Z,0.31
2023-10-25T09:20:36.044Z,0.31
2023-10-25T09:21:36.684Z,0.31
2023-10-25T09:22:37.479Z,0.31
2023-10-25T09:23:37.969Z,0.31
2023-10-25T09:24:38.432Z,0.31
2023-10-25T09:25:39.010Z,0.31
2023-10-25T09:26:39.788Z,0.31
2023-10-25T09:27:40.003Z,0.31
2023-10-25T09:28:40.675Z,0.31
2023-10-25T09:29:41.270Z,0.31
2023-10-25T09:30:41.583Z,0.27
2023-10-25T09:31:42.234Z,0.31
2023-10-25T09:32:42.388Z,0.31
2023-10-25T09:32:52.460Z,0.27
2023-10-25T09:33:52.581Z,0.27
2023-10-25T09:34:52.698Z,0.31
2023-10-25T09:35:53.200Z,0.31
2023-10-25T09:36:53.639Z,0.31
2023-10-25T09:37:54.480Z,0.31
2023-10-25T09:38:55.179Z,0.31
2023-10-25T09:39:55.803Z,0.31
2023-10-25T09:40:56.223Z,0.31
2023-10-25T09:41:56.904Z,0.34
2023-10-25T09:42:57.723Z,0.34
2023-10-25T09:43:57.460Z,0.34
2023-10-25T09:44:58.170Z,0.34
2023-10-25T09:45:58.636Z,0.34
2023-10-25T09:46:59.328Z,0.34
2023-10-25T09:48:00.110Z,0.34
2023-10-25T09:48:59.909Z,0.34
2023-10-25T09:50:00.892Z,0.34
2023-10-25T09:51:01.064Z,0.34
2023-10-25T09:52:01.067Z,0.34
2023-10-25T09:53:13.453Z,0.34
2023-10-25T09:54:02.667Z,0.34
2023-10-25T09:55:02.805Z,0.34
2023-10-25T09:56:03.332Z,0.34
2023-10-25T09:57:03.904Z,0.34
2023-10-25T09:58:04.316Z,0.34
2023-10-25T09:59:04.821Z,0.34
2023-10-25T10:00:05.388Z,0.34
2023-10-25T10:01:05.930Z,0.38
2023-10-25T10:02:06.604Z,0.38
2023-10-25T10:03:07.278Z,0.34
2023-10-25T10:04:07.803Z,0.34
2023-10-25T10:05:08.396Z,0.34
2023-10-25T10:06:09.011Z,0.34
2023-10-25T10:06:17.914Z,0.34
2023-10-25T10:07:18.333Z,0.34
2023-10-25T10:08:18.944Z,0.41
2023-10-25T10:09:19.319Z,0.38
2023-10-25T10:10:20.647Z,0.38
2023-10-25T10:11:20.463Z,0.38
2023-10-25T10:12:21.081Z,0.38
2023-10-25T10:13:21.632Z,0.38
2023-10-25T10:14:22.134Z,0.38
2023-10-25T10:15:22.769Z,0.38
2023-10-25T10:16:23.813Z,0.34
2023-10-25T10:17:25.377Z,0.34
2023-10-25T10:18:24.808Z,0.34
2023-10-25T10:19:25.377Z,0.34
2023-10-25T10:20:26.173Z,0.34
2023-10-25T10:21:26.430Z,0.34
2023-10-25T10:22:28.052Z,0.34
2023-10-25T10:23:27.671Z,0.34
2023-10-25T10:24:28.309Z,0.34
2023-10-25T10:25:29.284Z,0.34
2023-10-25T10:26:30.063Z,0.31
2023-10-25T10:27:31.004Z,0.31
2023-10-25T10:28:31.363Z,0.31
2023-10-25T10:29:32.233Z,0.31
2023-10-25T10:30:32.892Z,0.34
2023-10-25T10:31:33.419Z,0.38
2023-10-25T10:32:34.335Z,0.31
2023-10-25T10:33:34.867Z,0.31
2023-10-25T10:34:35.525Z,0.31
2023-10-25T10:35:36.118Z,0.31
2023-10-25T10:36:37.968Z,0.34
2023-10-25T10:37:37.579Z,0.31
2023-10-25T10:37:47.295Z,0.31
2023-10-25T10:38:47.865Z,0.31
2023-10-25T10:39:48.724Z,0.31
2023-10-25T10:40:49.373Z,0.31
2023-10-25T10:41:50.081Z,0.31
2023-10-25T10:42:51.031Z,0.31
2023-10-25T10:43:51.778Z,0.31
2023-10-25T10:44:52.667Z,0.31
2023-10-25T10:45:53.329Z,0.31
2023-10-25T10:46:53.567Z,0.31
2023-10-25T10:47:54.369Z,0.31
2023-10-25T10:48:54.920Z,0.31
2023-10-25T10:49:55.053Z,0.31
2023-10-25T10:50:55.807Z,0.31
2023-10-25T10:51:56.466Z,0.31
2023-10-25T10:52:57.632Z,0.31
2023-10-25T10:53:57.439Z,0.31
2023-10-25T10:54:58.120Z,0.31
2023-10-25T10:55:58.933Z,0.31
2023-10-25T10:56:59.905Z,0.31
2023-10-25T10:58:08.662Z,0.31
2023-10-25T10:59:01.156Z,0.31
2023-10-25T11:00:01.848Z,0.31
2023-10-25T11:01:02.651Z,0.31
2023-10-25T11:02:03.404Z,0.31
2023-10-25T11:03:07.853Z,0.34
2023-10-25T11:04:04.740Z,0.34
2023-10-25T11:05:05.616Z,0.34
2023-10-25T11:06:06.245Z,0.34
2023-10-25T11:07:06.874Z,0.34
2023-10-25T11:08:10.255Z,0.38
2023-10-25T11:09:08.217Z,0.34
2023-10-25T11:09:16.921Z,0.38
2023-10-25T11:10:17.649Z,0.38
2023-10-25T11:11:18.612Z,0.38
2023-10-25T11:12:19.186Z,0.38
2023-10-25T11:13:19.875Z,0.41
2023-10-25T11:14:20.501Z,0.41
2023-10-25T11:15:21.325Z,0.45
2023-10-25T11:16:21.644Z,0.41
2023-10-25T11:17:22.282Z,0.41
2023-10-25T11:18:23.216Z,0.41
2023-10-25T11:19:23.735Z,0.41
2023-10-25T11:20:24.530Z,0.41
2023-10-25T11:21:25.535Z,0.41
2023-10-25T11:22:26.269Z,0.41
2023-10-25T11:23:26.914Z,0.45
2023-10-25T11:24:27.475Z,0.45
2023-10-25T11:25:28.194Z,0.45
2023-10-25T11:26:29.209Z,0.45
2023-10-25T11:27:29.796Z,0.48
2023-10-25T11:28:30.808Z,0.52
2023-10-25T11:29:31.524Z,0.48
2023-10-25T11:30:32.103Z,0.48
2023-10-25T11:31:32.843Z,0.45
2023-10-25T11:32:33.579Z,0.52
2023-10-25T11:33:34.294Z,0.38
2023-10-25T11:34:34.935Z,0.38
2023-10-25T11:35:35.789Z,0.38
2023-10-25T11:36:36.394Z,0.38
2023-10-25T11:37:37.091Z,0.38
2023-10-25T11:38:37.943Z,0.41
2023-10-25T11:39:38.357Z,0.41
2023-10-25T11:40:39.000Z,0.41
2023-10-25T11:41:39.620Z,0.41
2023-10-25T11:41:48.324Z,0.41
2023-10-25T11:42:48.826Z,0.41
2023-10-25T11:43:49.215Z,0.41
2023-10-25T11:44:49.931Z,0.45
2023-10-25T11:45:49.993Z,0.45
2023-10-25T11:46:50.022Z,0.45
2023-10-25T11:47:51.035Z,0.45
2023-10-25T11:48:51.561Z,0.48
2023-10-25T11:49:51.967Z,0.48
2023-10-25T11:50:53.226Z,0.48
2023-10-25T11:51:53.303Z,0.55
2023-10-25T11:52:54.901Z,0.48
2023-10-25T11:53:55.606Z,0.48
2023-10-25T11:54:55.377Z,0.52
2023-10-25T11:55:56.061Z,0.55
2023-10-25T11:56:57.676Z,0.59
2023-10-25T11:57:57.313Z,0.66
2023-10-25T11:58:57.700Z,0.66
2023-10-25T11:59:58.379Z,0.59
2023-10-25T12:00:59.317Z,0.59
2023-10-25T12:01:59.939Z,0.59
2023-10-25T12:03:00.420Z,0.55
2023-10-25T12:04:00.886Z,0.48
2023-10-25T12:05:01.379Z,0.48
2023-10-25T12:06:02.205Z,0.45
2023-10-25T12:07:04.240Z,0.45
2023-10-25T12:08:03.418Z,0.48
2023-10-25T12:09:03.444Z,0.45
2023-10-25T12:10:04.269Z,0.48
2023-10-25T12:11:04.964Z,0.48
2023-10-25T12:12:05.288Z,0.48
2023-10-25T12:13:06.011Z,0.48
2023-10-25T12:14:09.509Z,0.48
2023-10-25T12:15:07.448Z,0.45
2023-10-25T12:16:08.245Z,0.45
2023-10-25T12:17:08.623Z,0.45
2023-10-25T12:17:18.856Z,0.52
2023-10-25T12:18:22.259Z,0.45
2023-10-25T12:19:19.624Z,0.45
2023-10-25T12:20:27.508Z,0.45
2023-10-25T12:21:21.504Z,0.52
2023-10-25T12:22:22.030Z,0.45
2023-10-25T12:23:22.834Z,0.45
2023-10-25T12:24:23.229Z,0.45
2023-10-25T12:25:23.805Z,0.45
2023-10-25T12:26:24.743Z,0.48
2023-10-25T12:27:24.817Z,0.48
2023-10-25T12:28:25.507Z,0.48
2023-10-25T12:29:26.099Z,0.52
2023-10-25T12:30:27.059Z,0.48
2023-10-25T12:31:27.949Z,0.48
2023-10-25T12:32:28.457Z,0.45
2023-10-25T12:33:29.061Z,0.45
2023-10-25T12:34:29.856Z,0.55
2023-10-25T12:35:30.079Z,0.59
2023-10-25T12:36:30.816Z,0.59
2023-10-25T12:37:31.342Z,0.66
2023-10-25T12:38:32.022Z,0.66
2023-10-25T12:39:32.660Z,0.66
2023-10-25T12:40:33.017Z,0.59
2023-10-25T12:41:33.659Z,0.55
2023-10-25T12:42:34.309Z,0.59
2023-10-25T12:43:34.768Z,0.66
2023-10-25T12:44:35.277Z,0.66
2023-10-25T12:45:35.272Z,0.66
2023-10-25T12:46:35.389Z,0.66
2023-10-25T12:47:36.211Z,0.66
2023-10-25T12:48:36.846Z,0.66
2023-10-25T12:48:45.732Z,0.66
2023-10-25T12:49:46.251Z,0.66
2023-10-25T12:50:47.105Z,0.66
2023-10-25T12:51:47.711Z,0.66
2023-10-25T12:52:48.498Z,0.66
2023-10-25T12:53:49.093Z,0.66
2023-10-25T12:54:49.724Z,0.55
2023-10-25T12:55:50.383Z,0.59
2023-10-25T12:56:51.180Z,0.48
2023-10-25T12:57:51.984Z,0.59
2023-10-25T12:58:52.769Z,0.52
2023-10-25T12:59:53.367Z,0.52
2023-10-25T13:00:53.612Z,0.48
2023-10-25T13:01:54.560Z,0.55
2023-10-25T13:02:55.473Z,0.48
2023-10-25T13:03:56.208Z,0.48
2023-10-25T13:04:56.833Z,0.48
2023-10-25T13:05:56.959Z,0.59
2023-10-25T13:06:57.577Z,0.55
2023-10-25T13:07:58.237Z,0.66
2023-10-25T13:08:58.879Z,0.66
2023-10-25T13:09:59.856Z,0.70
2023-10-25T13:11:00.559Z,0.70